Nearby METAR Reports

 

KMLI - Moline/Quad City, Illinois, USA
Distance from station: ENE 4mi, 7km
Updated: 10/18/2018 6:52am
Clear
Clear
 Wind from calm
Wind: Calm
Temperature: 30°F , -1°C
Dew Point: 28°F , -2°C
Humidity: 93%
Barometer: 30.52 inHg , 1033.5 hPa
Clouds: Clear
Visibility: 10 miles , 16 km
2018/10/18 11:52 KMLI 181152Z 00000KT 10SM CLR M01/M02 A3052 RMK AO2 SLP341 I1001 I6001 T10111022 10017 21011 51005
KDVN - Davenport/Quad C, Iowa, USA
Distance from station: N 14mi, 22km
Updated: 10/18/2018 6:52am
Clear
Clear
 Wind from S
Wind: S 3 mph , 6 km/h
Temperature: 28°F , -2°C
Dew Point: 25°F , -4°C
Humidity: 86%
Barometer: 30.53 inHg , 1033.9 hPa
Clouds: Clear
Visibility: 10 miles , 16 km
2018/10/18 11:52 KDVN 181152Z AUTO 17003KT 10SM CLR M02/M04 A3053 RMK AO2 SLP341 I1001 I6001 T10221039 10011 21028 50004
 
KMUT - Muscatine, Iowa, USA
Distance from station: W 29mi, 47km
Updated: 10/18/2018 6:55am
Clear
Clear
 Wind from calm
Wind: Calm
Temperature: 30°F , -1°C
Dew Point: 28°F , -2°C
Humidity: 93%
Barometer: 30.53 inHg , 1033.9 hPa
Clouds: Clear
Visibility: 8 miles , 13 km
2018/10/18 11:55 KMUT 181155Z AUTO 00000KT 8SM CLR M01/M02 A3053 RMK AO2
KCWI - Clinton Muni, Iowa, USA
Distance from station: NNE 31mi, 50km
Updated: 10/18/2018 6:56am
Clear
Clear
 Wind from calm
Wind: Calm
Temperature: 27°F , -3°C
Dew Point: 25°F , -4°C
Humidity: 93%
Barometer: 30.52 inHg , 1033.5 hPa
Clouds: Clear
Visibility: 10 miles , 16 km
2018/10/18 11:56 KCWI 181156Z AUTO 00000KT 10SM CLR M03/M04 A3052 RMK AO2 SLP365 T10281039 10011 21033 51004 FZRANO
 
KGBG - Galesburg, Illinois, USA
Distance from station: SSE 35mi, 56km
Updated: 10/18/2018 6:55am
Clear
Clear
 Wind from calm
Wind: Calm
Temperature: 28°F , -2°C
Dew Point: 28°F , -2°C
Humidity: 100%
Barometer: 30.53 inHg , 1033.9 hPa
Clouds: Clear
Visibility: 10 miles , 16 km
2018/10/18 11:55 KGBG 181155Z AUTO 00000KT 10SM CLR M02/M02 A3053 RMK AO2 T10171017 10001 21018
KSFY - Savanna/Tritown, Illinois, USA
Distance from station: NNE 50mi, 80km
Updated: 10/18/2018 6:56am
Mist, Clear
Mist, Clear
 Wind from NE
Wind: NE 3 mph , 6 km/h
Temperature: 30°F , -1°C
Dew Point: 28°F , -2°C
Humidity: 93%
Barometer: 30.53 inHg , 1033.9 hPa
Summary: Mist
Clouds: Clear
Visibility: 5 miles , 8 km
2018/10/18 11:56 KSFY 181156Z AUTO 04003KT 5SM BR CLR M01/M02 A3053 RMK AO2